sensor_id;sensor_type;location;lat;lon;timestamp;P1;durP1;ratioP1;P2;durP2;ratioP2
11711;SDS011;5912;51.034;6.984;2023-07-16T00:01:39;1.75;;;1.40;;
11711;SDS011;5912;51.034;6.984;2023-07-16T00:04:05;2.20;;;1.42;;
11711;SDS011;5912;51.034;6.984;2023-07-16T00:06:30;2.50;;;1.30;;
11711;SDS011;5912;51.034;6.984;2023-07-16T00:08:55;2.65;;;1.80;;
11711;SDS011;5912;51.034;6.984;2023-07-16T00:11:21;1.58;;;1.15;;
11711;SDS011;5912;51.034;6.984;2023-07-16T00:13:46;1.67;;;1.30;;
11711;SDS011;5912;51.034;6.984;2023-07-16T00:16:13;2.30;;;1.55;;
11711;SDS011;5912;51.034;6.984;2023-07-16T00:18:39;3.92;;;1.60;;
11711;SDS011;5912;51.034;6.984;2023-07-16T00:21:04;3.58;;;1.55;;
11711;SDS011;5912;51.034;6.984;2023-07-16T00:23:29;2.00;;;1.40;;
11711;SDS011;5912;51.034;6.984;2023-07-16T00:25:55;3.60;;;1.48;;
11711;SDS011;5912;51.034;6.984;2023-07-16T00:28:20;4.55;;;1.52;;
11711;SDS011;5912;51.034;6.984;2023-07-16T00:30:45;2.67;;;1.40;;
11711;SDS011;5912;51.034;6.984;2023-07-16T00:33:11;1.63;;;1.38;;
11711;SDS011;5912;51.034;6.984;2023-07-16T00:35:36;1.48;;;1.20;;
11711;SDS011;5912;51.034;6.984;2023-07-16T00:38:01;2.03;;;1.35;;
11711;SDS011;5912;51.034;6.984;2023-07-16T00:40:27;2.05;;;1.35;;
11711;SDS011;5912;51.034;6.984;2023-07-16T00:42:52;2.58;;;1.73;;
11711;SDS011;5912;51.034;6.984;2023-07-16T00:45:17;4.03;;;1.50;;
11711;SDS011;5912;51.034;6.984;2023-07-16T00:47:43;2.28;;;1.30;;
11711;SDS011;5912;51.034;6.984;2023-07-16T00:50:10;2.35;;;1.58;;
11711;SDS011;5912;51.034;6.984;2023-07-16T00:52:36;2.55;;;1.38;;
11711;SDS011;5912;51.034;6.984;2023-07-16T00:55:02;2.22;;;1.05;;
11711;SDS011;5912;51.034;6.984;2023-07-16T00:57:27;2.75;;;1.60;;
11711;SDS011;5912;51.034;6.984;2023-07-16T00:59:53;2.00;;;1.42;;
11711;SDS011;5912;51.034;6.984;2023-07-16T01:02:18;2.05;;;1.35;;
11711;SDS011;5912;51.034;6.984;2023-07-16T01:04:44;3.65;;;1.35;;
11711;SDS011;5912;51.034;6.984;2023-07-16T01:07:10;2.10;;;1.27;;
11711;SDS011;5912;51.034;6.984;2023-07-16T01:09:39;2.25;;;1.33;;
11711;SDS011;5912;51.034;6.984;2023-07-16T01:12:06;2.65;;;1.20;;
11711;SDS011;5912;51.034;6.984;2023-07-16T01:14:33;2.58;;;1.30;;
11711;SDS011;5912;51.034;6.984;2023-07-16T01:17:02;2.47;;;1.10;;
11711;SDS011;5912;51.034;6.984;2023-07-16T01:19:29;3.35;;;1.40;;
11711;SDS011;5912;51.034;6.984;2023-07-16T01:30:02;3.10;;;1.45;;
11711;SDS011;5912;51.034;6.984;2023-07-16T01:32:29;7.47;;;1.80;;
11711;SDS011;5912;51.034;6.984;2023-07-16T01:34:55;2.55;;;1.20;;
11711;SDS011;5912;51.034;6.984;2023-07-16T01:37:22;2.80;;;1.30;;
11711;SDS011;5912;51.034;6.984;2023-07-16T01:39:48;3.05;;;1.48;;
11711;SDS011;5912;51.034;6.984;2023-07-16T01:42:14;2.90;;;1.33;;
11711;SDS011;5912;51.034;6.984;2023-07-16T01:44:39;2.33;;;1.10;;
11711;SDS011;5912;51.034;6.984;2023-07-16T01:47:05;5.00;;;1.20;;
11711;SDS011;5912;51.034;6.984;2023-07-16T01:49:34;2.05;;;1.23;;
11711;SDS011;5912;51.034;6.984;2023-07-16T01:52:00;5.97;;;1.20;;
11711;SDS011;5912;51.034;6.984;2023-07-16T01:54:27;2.63;;;1.30;;
11711;SDS011;5912;51.034;6.984;2023-07-16T01:56:53;1.73;;;1.20;;
11711;SDS011;5912;51.034;6.984;2023-07-16T01:59:18;8.45;;;1.75;;
11711;SDS011;5912;51.034;6.984;2023-07-16T02:01:43;2.30;;;1.60;;
11711;SDS011;5912;51.034;6.984;2023-07-16T02:04:09;2.22;;;1.27;;
11711;SDS011;5912;51.034;6.984;2023-07-16T02:06:34;1.98;;;1.23;;
11711;SDS011;5912;51.034;6.984;2023-07-16T02:08:59;3.47;;;1.77;;
11711;SDS011;5912;51.034;6.984;2023-07-16T02:11:25;1.77;;;1.20;;
11711;SDS011;5912;51.034;6.984;2023-07-16T02:13:50;2.45;;;1.40;;
11711;SDS011;5912;51.034;6.984;2023-07-16T02:16:15;3.17;;;1.75;;
11711;SDS011;5912;51.034;6.984;2023-07-16T02:18:40;3.35;;;1.40;;
11711;SDS011;5912;51.034;6.984;2023-07-16T02:21:06;2.03;;;1.20;;
11711;SDS011;5912;51.034;6.984;2023-07-16T02:23:31;3.65;;;1.75;;
11711;SDS011;5912;51.034;6.984;2023-07-16T02:25:56;1.80;;;1.30;;
11711;SDS011;5912;51.034;6.984;2023-07-16T02:28:22;2.55;;;1.30;;
11711;SDS011;5912;51.034;6.984;2023-07-16T02:30:48;3.65;;;1.25;;
11711;SDS011;5912;51.034;6.984;2023-07-16T02:33:16;3.72;;;1.33;;
11711;SDS011;5912;51.034;6.984;2023-07-16T02:35:45;1.73;;;1.08;;
11711;SDS011;5912;51.034;6.984;2023-07-16T02:38:12;1.98;;;1.17;;
11711;SDS011;5912;51.034;6.984;2023-07-16T02:40:42;4.95;;;1.58;;
11711;SDS011;5912;51.034;6.984;2023-07-16T02:43:11;5.28;;;1.60;;
11711;SDS011;5912;51.034;6.984;2023-07-16T02:45:37;3.78;;;1.40;;
11711;SDS011;5912;51.034;6.984;2023-07-16T02:48:03;2.58;;;1.50;;
11711;SDS011;5912;51.034;6.984;2023-07-16T02:50:30;3.53;;;1.30;;
11711;SDS011;5912;51.034;6.984;2023-07-16T02:52:58;2.45;;;1.23;;
11711;SDS011;5912;51.034;6.984;2023-07-16T02:55:23;3.45;;;1.30;;
11711;SDS011;5912;51.034;6.984;2023-07-16T02:57:48;3.22;;;1.10;;
11711;SDS011;5912;51.034;6.984;2023-07-16T03:00:14;1.88;;;1.00;;
11711;SDS011;5912;51.034;6.984;2023-07-16T03:02:39;4.63;;;1.48;;
11711;SDS011;5912;51.034;6.984;2023-07-16T03:05:05;2.90;;;1.42;;
11711;SDS011;5912;51.034;6.984;2023-07-16T03:07:30;3.20;;;1.23;;
11711;SDS011;5912;51.034;6.984;2023-07-16T03:09:56;2.55;;;1.45;;
11711;SDS011;5912;51.034;6.984;2023-07-16T03:12:21;5.00;;;1.35;;
11711;SDS011;5912;51.034;6.984;2023-07-16T03:14:46;2.67;;;1.40;;
11711;SDS011;5912;51.034;6.984;2023-07-16T03:17:12;2.03;;;1.10;;
11711;SDS011;5912;51.034;6.984;2023-07-16T03:19:37;1.83;;;1.20;;
11711;SDS011;5912;51.034;6.984;2023-07-16T03:22:04;3.65;;;1.35;;
11711;SDS011;5912;51.034;6.984;2023-07-16T03:24:29;3.33;;;1.17;;
11711;SDS011;5912;51.034;6.984;2023-07-16T03:26:55;2.03;;;1.20;;
11711;SDS011;5912;51.034;6.984;2023-07-16T03:29:20;3.88;;;1.50;;
11711;SDS011;5912;51.034;6.984;2023-07-16T03:31:45;2.22;;;1.10;;
11711;SDS011;5912;51.034;6.984;2023-07-16T03:34:11;4.45;;;1.40;;
11711;SDS011;5912;51.034;6.984;2023-07-16T03:36:36;3.63;;;1.45;;
11711;SDS011;5912;51.034;6.984;2023-07-16T03:39:01;2.03;;;1.20;;
11711;SDS011;5912;51.034;6.984;2023-07-16T03:41:27;2.30;;;1.08;;
11711;SDS011;5912;51.034;6.984;2023-07-16T03:43:53;2.38;;;1.63;;
11711;SDS011;5912;51.034;6.984;2023-07-16T03:46:18;2.90;;;1.42;;
11711;SDS011;5912;51.034;6.984;2023-07-16T03:48:44;3.55;;;1.42;;
11711;SDS011;5912;51.034;6.984;2023-07-16T03:51:10;3.92;;;1.33;;
11711;SDS011;5912;51.034;6.984;2023-07-16T03:53:35;4.15;;;1.30;;
11711;SDS011;5912;51.034;6.984;2023-07-16T03:56:01;4.57;;;1.40;;
11711;SDS011;5912;51.034;6.984;2023-07-16T03:58:26;3.75;;;1.30;;
11711;SDS011;5912;51.034;6.984;2023-07-16T04:00:54;3.25;;;1.40;;
11711;SDS011;5912;51.034;6.984;2023-07-16T04:03:19;2.15;;;1.42;;
11711;SDS011;5912;51.034;6.984;2023-07-16T04:05:44;5.35;;;1.60;;
11711;SDS011;5912;51.034;6.984;2023-07-16T04:08:10;2.90;;;1.65;;
11711;SDS011;5912;51.034;6.984;2023-07-16T04:10:35;4.55;;;1.60;;
11711;SDS011;5912;51.034;6.984;2023-07-16T04:13:00;3.95;;;1.58;;
11711;SDS011;5912;51.034;6.984;2023-07-16T04:15:26;4.60;;;1.75;;
11711;SDS011;5912;51.034;6.984;2023-07-16T04:17:51;5.05;;;1.70;;
11711;SDS011;5912;51.034;6.984;2023-07-16T04:20:16;2.13;;;1.38;;
11711;SDS011;5912;51.034;6.984;2023-07-16T04:22:42;3.95;;;1.90;;
11711;SDS011;5912;51.034;6.984;2023-07-16T04:25:07;4.25;;;1.75;;
11711;SDS011;5912;51.034;6.984;2023-07-16T04:27:33;3.55;;;1.52;;
11711;SDS011;5912;51.034;6.984;2023-07-16T04:29:58;5.15;;;1.50;;
11711;SDS011;5912;51.034;6.984;2023-07-16T04:32:24;4.32;;;1.52;;
11711;SDS011;5912;51.034;6.984;2023-07-16T04:34:49;3.25;;;1.70;;
11711;SDS011;5912;51.034;6.984;2023-07-16T04:37:14;4.00;;;1.80;;
11711;SDS011;5912;51.034;6.984;2023-07-16T04:39:43;4.43;;;1.70;;
11711;SDS011;5912;51.034;6.984;2023-07-16T04:42:08;2.55;;;1.50;;
11711;SDS011;5912;51.034;6.984;2023-07-16T04:44:33;7.72;;;1.63;;
11711;SDS011;5912;51.034;6.984;2023-07-16T04:46:59;6.10;;;2.03;;
11711;SDS011;5912;51.034;6.984;2023-07-16T04:49:24;5.15;;;1.85;;
11711;SDS011;5912;51.034;6.984;2023-07-16T04:51:49;3.83;;;1.88;;
11711;SDS011;5912;51.034;6.984;2023-07-16T04:54:15;4.45;;;1.75;;
11711;SDS011;5912;51.034;6.984;2023-07-16T04:56:40;5.10;;;1.60;;
11711;SDS011;5912;51.034;6.984;2023-07-16T04:59:05;6.15;;;1.63;;
11711;SDS011;5912;51.034;6.984;2023-07-16T05:01:31;4.97;;;1.40;;
11711;SDS011;5912;51.034;6.984;2023-07-16T05:03:56;3.17;;;1.40;;
11711;SDS011;5912;51.034;6.984;2023-07-16T05:06:21;4.32;;;1.60;;
11711;SDS011;5912;51.034;6.984;2023-07-16T05:08:47;5.75;;;1.80;;
11711;SDS011;5912;51.034;6.984;2023-07-16T05:11:12;3.38;;;2.15;;
11711;SDS011;5912;51.034;6.984;2023-07-16T05:13:37;3.60;;;1.55;;
11711;SDS011;5912;51.034;6.984;2023-07-16T05:16:03;3.72;;;1.65;;
11711;SDS011;5912;51.034;6.984;2023-07-16T05:18:28;4.22;;;1.73;;
11711;SDS011;5912;51.034;6.984;2023-07-16T05:20:53;3.38;;;1.65;;
11711;SDS011;5912;51.034;6.984;2023-07-16T05:23:19;3.63;;;2.00;;
11711;SDS011;5912;51.034;6.984;2023-07-16T05:25:47;3.17;;;1.80;;
11711;SDS011;5912;51.034;6.984;2023-07-16T05:28:14;4.63;;;1.50;;
11711;SDS011;5912;51.034;6.984;2023-07-16T05:30:40;3.45;;;2.40;;
11711;SDS011;5912;51.034;6.984;2023-07-16T05:33:05;4.22;;;1.75;;
11711;SDS011;5912;51.034;6.984;2023-07-16T05:35:31;4.82;;;1.98;;
11711;SDS011;5912;51.034;6.984;2023-07-16T05:37:56;3.83;;;2.00;;
11711;SDS011;5912;51.034;6.984;2023-07-16T05:40:21;5.45;;;2.47;;
11711;SDS011;5912;51.034;6.984;2023-07-16T05:42:46;3.58;;;1.85;;
11711;SDS011;5912;51.034;6.984;2023-07-16T05:45:12;2.70;;;1.55;;
11711;SDS011;5912;51.034;6.984;2023-07-16T05:47:37;3.05;;;1.90;;
11711;SDS011;5912;51.034;6.984;2023-07-16T05:50:03;3.92;;;1.83;;
11711;SDS011;5912;51.034;6.984;2023-07-16T05:52:28;3.20;;;1.88;;
11711;SDS011;5912;51.034;6.984;2023-07-16T05:54:54;6.47;;;1.98;;
11711;SDS011;5912;51.034;6.984;2023-07-16T05:57:19;6.50;;;2.35;;
11711;SDS011;5912;51.034;6.984;2023-07-16T05:59:44;4.78;;;2.08;;
11711;SDS011;5912;51.034;6.984;2023-07-16T06:02:09;6.95;;;2.35;;
11711;SDS011;5912;51.034;6.984;2023-07-16T06:04:35;5.68;;;2.58;;
11711;SDS011;5912;51.034;6.984;2023-07-16T06:07:00;5.80;;;2.05;;
11711;SDS011;5912;51.034;6.984;2023-07-16T06:09:27;5.97;;;2.03;;
11711;SDS011;5912;51.034;6.984;2023-07-16T06:11:52;7.90;;;2.47;;
11711;SDS011;5912;51.034;6.984;2023-07-16T06:14:17;3.45;;;2.15;;
11711;SDS011;5912;51.034;6.984;2023-07-16T06:16:48;3.22;;;2.38;;
11711;SDS011;5912;51.034;6.984;2023-07-16T06:19:14;4.45;;;2.30;;
11711;SDS011;5912;51.034;6.984;2023-07-16T06:21:39;5.60;;;2.60;;
11711;SDS011;5912;51.034;6.984;2023-07-16T06:24:04;6.57;;;2.40;;
11711;SDS011;5912;51.034;6.984;2023-07-16T06:26:30;5.80;;;3.10;;
11711;SDS011;5912;51.034;6.984;2023-07-16T06:28:55;5.20;;;2.50;;
11711;SDS011;5912;51.034;6.984;2023-07-16T06:31:21;6.60;;;2.75;;
11711;SDS011;5912;51.034;6.984;2023-07-16T06:33:47;4.50;;;2.58;;
11711;SDS011;5912;51.034;6.984;2023-07-16T06:36:12;2.85;;;2.13;;
11711;SDS011;5912;51.034;6.984;2023-07-16T06:38:38;5.05;;;2.67;;
11711;SDS011;5912;51.034;6.984;2023-07-16T06:41:03;5.22;;;2.45;;
11711;SDS011;5912;51.034;6.984;2023-07-16T06:43:29;4.40;;;2.80;;
11711;SDS011;5912;51.034;6.984;2023-07-16T06:45:54;5.95;;;2.75;;
11711;SDS011;5912;51.034;6.984;2023-07-16T06:48:19;6.75;;;2.63;;
11711;SDS011;5912;51.034;6.984;2023-07-16T06:50:45;4.97;;;2.35;;
11711;SDS011;5912;51.034;6.984;2023-07-16T06:53:10;5.55;;;2.35;;
11711;SDS011;5912;51.034;6.984;2023-07-16T06:55:36;4.25;;;2.60;;
11711;SDS011;5912;51.034;6.984;2023-07-16T06:58:02;5.65;;;2.83;;
11711;SDS011;5912;51.034;6.984;2023-07-16T07:00:28;5.63;;;2.97;;
11711;SDS011;5912;51.034;6.984;2023-07-16T07:02:53;4.38;;;2.63;;
11711;SDS011;5912;51.034;6.984;2023-07-16T07:05:19;7.03;;;2.72;;
11711;SDS011;5912;51.034;6.984;2023-07-16T07:07:44;4.75;;;2.50;;
11711;SDS011;5912;51.034;6.984;2023-07-16T07:10:10;3.65;;;2.60;;
11711;SDS011;5912;51.034;6.984;2023-07-16T07:12:37;4.45;;;2.75;;
11711;SDS011;5912;51.034;6.984;2023-07-16T07:15:04;3.53;;;2.35;;
11711;SDS011;5912;51.034;6.984;2023-07-16T07:17:33;6.30;;;2.80;;
11711;SDS011;5912;51.034;6.984;2023-07-16T07:19:59;4.18;;;2.60;;
11711;SDS011;5912;51.034;6.984;2023-07-16T07:22:25;3.78;;;2.58;;
11711;SDS011;5912;51.034;6.984;2023-07-16T07:24:50;5.68;;;2.35;;
11711;SDS011;5912;51.034;6.984;2023-07-16T07:27:16;3.55;;;2.33;;
11711;SDS011;5912;51.034;6.984;2023-07-16T07:29:41;3.50;;;2.53;;
11711;SDS011;5912;51.034;6.984;2023-07-16T07:32:06;4.90;;;2.53;;
11711;SDS011;5912;51.034;6.984;2023-07-16T07:34:33;3.88;;;2.53;;
11711;SDS011;5912;51.034;6.984;2023-07-16T07:36:58;2.95;;;2.20;;
11711;SDS011;5912;51.034;6.984;2023-07-16T07:39:23;5.00;;;2.55;;
11711;SDS011;5912;51.034;6.984;2023-07-16T07:41:49;3.97;;;2.55;;
11711;SDS011;5912;51.034;6.984;2023-07-16T07:44:14;4.82;;;2.53;;
11711;SDS011;5912;51.034;6.984;2023-07-16T07:46:39;4.78;;;2.47;;
11711;SDS011;5912;51.034;6.984;2023-07-16T07:49:05;3.33;;;2.30;;
11711;SDS011;5912;51.034;6.984;2023-07-16T07:51:30;4.32;;;2.40;;
11711;SDS011;5912;51.034;6.984;2023-07-16T07:53:55;3.90;;;2.63;;
11711;SDS011;5912;51.034;6.984;2023-07-16T07:56:20;3.35;;;2.22;;
11711;SDS011;5912;51.034;6.984;2023-07-16T07:58:46;3.30;;;2.00;;
11711;SDS011;5912;51.034;6.984;2023-07-16T08:01:11;5.85;;;2.40;;
11711;SDS011;5912;51.034;6.984;2023-07-16T08:03:37;6.40;;;2.90;;
11711;SDS011;5912;51.034;6.984;2023-07-16T08:06:02;5.82;;;2.72;;
11711;SDS011;5912;51.034;6.984;2023-07-16T08:08:27;3.17;;;2.10;;
11711;SDS011;5912;51.034;6.984;2023-07-16T08:10:53;3.53;;;2.03;;
11711;SDS011;5912;51.034;6.984;2023-07-16T08:13:19;3.88;;;2.30;;
11711;SDS011;5912;51.034;6.984;2023-07-16T08:15:45;3.65;;;2.58;;
11711;SDS011;5912;51.034;6.984;2023-07-16T08:18:10;4.22;;;2.28;;
11711;SDS011;5912;51.034;6.984;2023-07-16T08:20:36;3.78;;;2.00;;
11711;SDS011;5912;51.034;6.984;2023-07-16T08:23:01;4.38;;;2.40;;
11711;SDS011;5912;51.034;6.984;2023-07-16T08:25:27;4.28;;;2.33;;
11711;SDS011;5912;51.034;6.984;2023-07-16T08:27:53;2.92;;;1.88;;
11711;SDS011;5912;51.034;6.984;2023-07-16T08:30:18;4.40;;;2.22;;
11711;SDS011;5912;51.034;6.984;2023-07-16T08:32:43;5.85;;;2.20;;
11711;SDS011;5912;51.034;6.984;2023-07-16T08:35:09;4.53;;;2.30;;
11711;SDS011;5912;51.034;6.984;2023-07-16T08:37:40;4.88;;;2.63;;
11711;SDS011;5912;51.034;6.984;2023-07-16T08:40:06;5.13;;;2.22;;
11711;SDS011;5912;51.034;6.984;2023-07-16T08:42:32;4.07;;;2.33;;
11711;SDS011;5912;51.034;6.984;2023-07-16T08:44:57;5.55;;;2.15;;
11711;SDS011;5912;51.034;6.984;2023-07-16T08:47:23;6.07;;;2.72;;
11711;SDS011;5912;51.034;6.984;2023-07-16T08:49:53;2.97;;;2.50;;
11711;SDS011;5912;51.034;6.984;2023-07-16T08:52:20;4.63;;;2.53;;
11711;SDS011;5912;51.034;6.984;2023-07-16T08:54:46;4.68;;;2.63;;
11711;SDS011;5912;51.034;6.984;2023-07-16T08:57:12;3.60;;;2.35;;
11711;SDS011;5912;51.034;6.984;2023-07-16T08:59:38;5.50;;;2.70;;
11711;SDS011;5912;51.034;6.984;2023-07-16T09:02:04;6.82;;;2.50;;
11711;SDS011;5912;51.034;6.984;2023-07-16T09:04:30;4.07;;;2.40;;
11711;SDS011;5912;51.034;6.984;2023-07-16T09:06:55;4.00;;;2.53;;
11711;SDS011;5912;51.034;6.984;2023-07-16T09:09:22;5.65;;;2.63;;
11711;SDS011;5912;51.034;6.984;2023-07-16T09:11:48;2.90;;;2.22;;
11711;SDS011;5912;51.034;6.984;2023-07-16T09:14:17;3.60;;;2.42;;
11711;SDS011;5912;51.034;6.984;2023-07-16T09:16:49;6.53;;;2.53;;
11711;SDS011;5912;51.034;6.984;2023-07-16T09:19:14;4.40;;;2.35;;
11711;SDS011;5912;51.034;6.984;2023-07-16T09:21:42;3.80;;;1.90;;
11711;SDS011;5912;51.034;6.984;2023-07-16T09:24:08;3.30;;;2.00;;
11711;SDS011;5912;51.034;6.984;2023-07-16T09:26:36;4.18;;;1.88;;
11711;SDS011;5912;51.034;6.984;2023-07-16T09:29:05;4.95;;;2.10;;
11711;SDS011;5912;51.034;6.984;2023-07-16T09:31:31;4.63;;;2.10;;
11711;SDS011;5912;51.034;6.984;2023-07-16T09:33:57;5.45;;;2.45;;
11711;SDS011;5912;51.034;6.984;2023-07-16T09:36:24;3.00;;;2.05;;
11711;SDS011;5912;51.034;6.984;2023-07-16T09:38:51;2.85;;;2.00;;
11711;SDS011;5912;51.034;6.984;2023-07-16T09:41:18;3.25;;;2.00;;
11711;SDS011;5912;51.034;6.984;2023-07-16T09:43:44;3.38;;;1.95;;
11711;SDS011;5912;51.034;6.984;2023-07-16T09:46:10;3.65;;;2.38;;
11711;SDS011;5912;51.034;6.984;2023-07-16T09:48:36;4.00;;;2.20;;
11711;SDS011;5912;51.034;6.984;2023-07-16T09:51:01;3.38;;;1.77;;
11711;SDS011;5912;51.034;6.984;2023-07-16T09:53:27;2.53;;;1.95;;
11711;SDS011;5912;51.034;6.984;2023-07-16T09:55:55;2.80;;;1.90;;
11711;SDS011;5912;51.034;6.984;2023-07-16T09:58:23;3.00;;;2.00;;
11711;SDS011;5912;51.034;6.984;2023-07-16T10:00:50;3.58;;;2.20;;
11711;SDS011;5912;51.034;6.984;2023-07-16T10:03:16;2.75;;;2.00;;
11711;SDS011;5912;51.034;6.984;2023-07-16T10:05:42;2.13;;;1.73;;
11711;SDS011;5912;51.034;6.984;2023-07-16T10:08:15;2.78;;;1.85;;
11711;SDS011;5912;51.034;6.984;2023-07-16T10:10:45;4.88;;;1.80;;
11711;SDS011;5912;51.034;6.984;2023-07-16T10:13:18;3.90;;;2.00;;
11711;SDS011;5912;51.034;6.984;2023-07-16T10:15:57;1.80;;;1.60;;
11711;SDS011;5912;51.034;6.984;2023-07-16T10:18:27;2.28;;;1.50;;
11711;SDS011;5912;51.034;6.984;2023-07-16T10:21:14;2.22;;;1.80;;
11711;SDS011;5912;51.034;6.984;2023-07-16T10:23:55;3.03;;;1.90;;
11711;SDS011;5912;51.034;6.984;2023-07-16T10:26:25;2.63;;;2.08;;
11711;SDS011;5912;51.034;6.984;2023-07-16T10:28:53;4.93;;;2.10;;
11711;SDS011;5912;51.034;6.984;2023-07-16T10:31:22;4.30;;;1.90;;
11711;SDS011;5912;51.034;6.984;2023-07-16T10:33:59;2.38;;;1.98;;
11711;SDS011;5912;51.034;6.984;2023-07-16T10:36:29;3.20;;;1.65;;
11711;SDS011;5912;51.034;6.984;2023-07-16T10:39:00;2.45;;;1.63;;
11711;SDS011;5912;51.034;6.984;2023-07-16T10:41:27;3.67;;;1.55;;
11711;SDS011;5912;51.034;6.984;2023-07-16T10:43:53;5.03;;;1.80;;
11711;SDS011;5912;51.034;6.984;2023-07-16T10:46:19;3.58;;;1.85;;
11711;SDS011;5912;51.034;6.984;2023-07-16T10:48:46;3.05;;;2.08;;
11711;SDS011;5912;51.034;6.984;2023-07-16T10:51:14;3.65;;;2.03;;
11711;SDS011;5912;51.034;6.984;2023-07-16T10:53:41;3.50;;;1.70;;
11711;SDS011;5912;51.034;6.984;2023-07-16T10:56:07;2.70;;;2.13;;
11711;SDS011;5912;51.034;6.984;2023-07-16T10:58:33;3.15;;;2.08;;
11711;SDS011;5912;51.034;6.984;2023-07-16T11:00:58;2.70;;;2.17;;
11711;SDS011;5912;51.034;6.984;2023-07-16T11:03:23;2.92;;;1.60;;
11711;SDS011;5912;51.034;6.984;2023-07-16T11:05:49;3.50;;;1.70;;
11711;SDS011;5912;51.034;6.984;2023-07-16T11:08:24;4.03;;;2.20;;
11711;SDS011;5912;51.034;6.984;2023-07-16T11:10:56;3.83;;;1.92;;
11711;SDS011;5912;51.034;6.984;2023-07-16T11:13:25;5.97;;;2.00;;
11711;SDS011;5912;51.034;6.984;2023-07-16T11:15:54;3.83;;;1.70;;
11711;SDS011;5912;51.034;6.984;2023-07-16T11:18:21;2.80;;;2.00;;
11711;SDS011;5912;51.034;6.984;2023-07-16T11:20:50;3.22;;;1.70;;
11711;SDS011;5912;51.034;6.984;2023-07-16T11:23:17;4.10;;;1.85;;
11711;SDS011;5912;51.034;6.984;2023-07-16T11:25:46;5.32;;;2.33;;
11711;SDS011;5912;51.034;6.984;2023-07-16T11:28:12;2.63;;;1.80;;
11711;SDS011;5912;51.034;6.984;2023-07-16T11:30:37;2.58;;;1.90;;
11711;SDS011;5912;51.034;6.984;2023-07-16T11:33:03;4.50;;;2.22;;
11711;SDS011;5912;51.034;6.984;2023-07-16T11:35:29;5.28;;;1.90;;
11711;SDS011;5912;51.034;6.984;2023-07-16T11:37:54;2.85;;;1.83;;
11711;SDS011;5912;51.034;6.984;2023-07-16T11:40:20;2.17;;;1.73;;
11711;SDS011;5912;51.034;6.984;2023-07-16T11:42:46;5.50;;;2.30;;
11711;SDS011;5912;51.034;6.984;2023-07-16T11:45:16;2.30;;;1.60;;
11711;SDS011;5912;51.034;6.984;2023-07-16T11:47:48;3.67;;;2.10;;
11711;SDS011;5912;51.034;6.984;2023-07-16T11:50:14;4.75;;;2.85;;
11711;SDS011;5912;51.034;6.984;2023-07-16T11:52:39;3.47;;;1.92;;
11711;SDS011;5912;51.034;6.984;2023-07-16T11:55:05;3.88;;;2.10;;
11711;SDS011;5912;51.034;6.984;2023-07-16T11:57:31;3.17;;;1.85;;
11711;SDS011;5912;51.034;6.984;2023-07-16T11:59:56;3.95;;;1.95;;
11711;SDS011;5912;51.034;6.984;2023-07-16T12:02:22;5.95;;;1.98;;
11711;SDS011;5912;51.034;6.984;2023-07-16T12:04:50;3.47;;;1.75;;
11711;SDS011;5912;51.034;6.984;2023-07-16T12:07:29;3.58;;;2.05;;
11711;SDS011;5912;51.034;6.984;2023-07-16T12:09:56;2.83;;;1.90;;
11711;SDS011;5912;51.034;6.984;2023-07-16T12:12:21;5.25;;;2.45;;
11711;SDS011;5912;51.034;6.984;2023-07-16T12:14:47;3.00;;;2.00;;
11711;SDS011;5912;51.034;6.984;2023-07-16T12:17:12;3.00;;;1.80;;
11711;SDS011;5912;51.034;6.984;2023-07-16T12:19:38;4.57;;;2.03;;
11711;SDS011;5912;51.034;6.984;2023-07-16T12:22:04;2.47;;;1.80;;
11711;SDS011;5912;51.034;6.984;2023-07-16T12:24:30;2.78;;;2.03;;
11711;SDS011;5912;51.034;6.984;2023-07-16T12:26:55;3.47;;;1.80;;
11711;SDS011;5912;51.034;6.984;2023-07-16T12:29:21;5.07;;;1.80;;
11711;SDS011;5912;51.034;6.984;2023-07-16T12:31:46;2.63;;;2.10;;
11711;SDS011;5912;51.034;6.984;2023-07-16T12:34:12;2.67;;;2.10;;
11711;SDS011;5912;51.034;6.984;2023-07-16T12:36:37;3.28;;;1.77;;
11711;SDS011;5912;51.034;6.984;2023-07-16T12:39:02;4.10;;;2.28;;
11711;SDS011;5912;51.034;6.984;2023-07-16T12:41:28;3.70;;;2.10;;
11711;SDS011;5912;51.034;6.984;2023-07-16T12:43:53;3.08;;;2.10;;
11711;SDS011;5912;51.034;6.984;2023-07-16T12:46:18;3.40;;;1.90;;
11711;SDS011;5912;51.034;6.984;2023-07-16T12:48:44;3.67;;;2.20;;
11711;SDS011;5912;51.034;6.984;2023-07-16T12:51:09;2.35;;;1.90;;
11711;SDS011;5912;51.034;6.984;2023-07-16T12:53:34;3.67;;;1.95;;
11711;SDS011;5912;51.034;6.984;2023-07-16T12:56:00;2.67;;;2.00;;
11711;SDS011;5912;51.034;6.984;2023-07-16T12:58:25;5.43;;;2.08;;
11711;SDS011;5912;51.034;6.984;2023-07-16T13:00:51;2.45;;;1.83;;
11711;SDS011;5912;51.034;6.984;2023-07-16T13:03:16;3.95;;;1.83;;
11711;SDS011;5912;51.034;6.984;2023-07-16T13:05:42;2.55;;;2.13;;
11711;SDS011;5912;51.034;6.984;2023-07-16T13:08:08;4.32;;;2.10;;
11711;SDS011;5912;51.034;6.984;2023-07-16T13:13:55;5.00;;;2.35;;
11711;SDS011;5912;51.034;6.984;2023-07-16T13:16:21;3.53;;;2.10;;
11711;SDS011;5912;51.034;6.984;2023-07-16T13:18:46;4.15;;;2.15;;
11711;SDS011;5912;51.034;6.984;2023-07-16T13:21:12;3.30;;;2.15;;
11711;SDS011;5912;51.034;6.984;2023-07-16T13:23:37;2.65;;;2.00;;
11711;SDS011;5912;51.034;6.984;2023-07-16T13:26:02;3.40;;;2.33;;
11711;SDS011;5912;51.034;6.984;2023-07-16T13:28:28;2.58;;;1.85;;
11711;SDS011;5912;51.034;6.984;2023-07-16T13:30:53;3.35;;;1.90;;
11711;SDS011;5912;51.034;6.984;2023-07-16T13:33:19;2.55;;;1.88;;
11711;SDS011;5912;51.034;6.984;2023-07-16T13:35:44;3.90;;;1.90;;
11711;SDS011;5912;51.034;6.984;2023-07-16T13:38:10;4.38;;;2.20;;
11711;SDS011;5912;51.034;6.984;2023-07-16T13:40:35;6.30;;;2.38;;
11711;SDS011;5912;51.034;6.984;2023-07-16T13:43:00;2.13;;;1.90;;
11711;SDS011;5912;51.034;6.984;2023-07-16T13:45:26;3.50;;;2.03;;
11711;SDS011;5912;51.034;6.984;2023-07-16T13:47:51;2.78;;;2.00;;
11711;SDS011;5912;51.034;6.984;2023-07-16T13:50:17;4.65;;;2.08;;
11711;SDS011;5912;51.034;6.984;2023-07-16T13:52:43;3.53;;;2.05;;
11711;SDS011;5912;51.034;6.984;2023-07-16T13:55:09;3.65;;;2.40;;
11711;SDS011;5912;51.034;6.984;2023-07-16T13:57:34;3.20;;;2.10;;
11711;SDS011;5912;51.034;6.984;2023-07-16T14:00:00;3.90;;;2.10;;
11711;SDS011;5912;51.034;6.984;2023-07-16T14:02:25;3.88;;;1.77;;
11711;SDS011;5912;51.034;6.984;2023-07-16T14:04:50;4.50;;;2.25;;
11711;SDS011;5912;51.034;6.984;2023-07-16T14:07:16;4.05;;;2.50;;
11711;SDS011;5912;51.034;6.984;2023-07-16T14:09:41;2.58;;;1.90;;
11711;SDS011;5912;51.034;6.984;2023-07-16T14:12:07;4.35;;;2.15;;
11711;SDS011;5912;51.034;6.984;2023-07-16T14:14:32;4.03;;;2.20;;
11711;SDS011;5912;51.034;6.984;2023-07-16T14:16:57;3.50;;;2.28;;
11711;SDS011;5912;51.034;6.984;2023-07-16T14:19:23;3.92;;;2.13;;
11711;SDS011;5912;51.034;6.984;2023-07-16T14:21:48;2.70;;;2.05;;
11711;SDS011;5912;51.034;6.984;2023-07-16T14:24:14;3.15;;;1.90;;
11711;SDS011;5912;51.034;6.984;2023-07-16T14:26:39;2.78;;;1.88;;
11711;SDS011;5912;51.034;6.984;2023-07-16T14:29:04;3.90;;;2.03;;
11711;SDS011;5912;51.034;6.984;2023-07-16T14:31:30;3.70;;;1.77;;
11711;SDS011;5912;51.034;6.984;2023-07-16T14:33:55;4.03;;;2.55;;
11711;SDS011;5912;51.034;6.984;2023-07-16T14:36:21;4.05;;;2.10;;
11711;SDS011;5912;51.034;6.984;2023-07-16T14:38:47;3.67;;;2.35;;
11711;SDS011;5912;51.034;6.984;2023-07-16T14:41:12;3.72;;;2.83;;
11711;SDS011;5912;51.034;6.984;2023-07-16T14:43:38;2.22;;;1.80;;
11711;SDS011;5912;51.034;6.984;2023-07-16T14:46:03;3.22;;;2.03;;
11711;SDS011;5912;51.034;6.984;2023-07-16T14:48:29;2.97;;;2.00;;
11711;SDS011;5912;51.034;6.984;2023-07-16T14:50:54;4.43;;;2.30;;
11711;SDS011;5912;51.034;6.984;2023-07-16T14:53:20;4.55;;;3.50;;
11711;SDS011;5912;51.034;6.984;2023-07-16T14:55:49;3.15;;;2.35;;
11711;SDS011;5912;51.034;6.984;2023-07-16T14:58:15;4.22;;;2.30;;
11711;SDS011;5912;51.034;6.984;2023-07-16T15:00:43;4.88;;;3.05;;
11711;SDS011;5912;51.034;6.984;2023-07-16T15:03:08;4.45;;;2.60;;
11711;SDS011;5912;51.034;6.984;2023-07-16T15:05:33;2.83;;;1.80;;